Upstream stations:
Downstream station:
SHEF ID: BRIO2 Canadian River at Bridgeport, OK
STATION TYPE:
Regulating: Stage = 15.00, Flow = 8545
STAGE RIV-FLOW
ft cfs
Ccp-Rev Ccp-Rev
(US/Central)
05/27 00:00 12.58 2161
05/27 01:00 12.55 2117
05/27 02:00 12.53 2089
05/27 03:00 12.50 2046
05/27 04:00 12.48 2018
05/27 05:00 12.45 1977
05/27 06:00 12.70 2341
05/27 07:00 13.13 3073
05/27 08:00 13.13 3073
05/27 09:00 13.12 3055
05/27 10:00 12.99 2820
05/27 11:00 12.94 2733
05/27 12:00 12.90 2665
05/27 13:00 12.88 2631
05/27 14:00 12.84 2565
05/27 15:00 12.81 2516
05/27 16:00 12.82 2532
05/27 17:00 12.83 2548
05/27 18:00 12.82 2532
05/27 19:00 12.80 2500
05/27 20:00 12.70 2341
05/27 21:00 12.65 2265
05/27 22:00 10.32 297
05/27 23:00 ---- ----